ADDS METAR Data INFO
IDs: Format: Raw Decoded Include TAF

Data at: 0307 UTC 21 Oct 2017

KSAZ 210252Z AUTO 17018G24KT 10SM SCT050 19/09 A2960 RMK AO2
KSAZ 210232Z AUTO 16015G27KT 10SM CLR 19/08 A2961 RMK AO2
KSAZ 210212Z AUTO 16015G23KT 10SM CLR 19/08 A2961 RMK AO2
KSAZ 210153Z AUTO 16017G23KT 10SM CLR 19/08 A2961 RMK AO2
KSAZ 210132Z AUTO 17016G23KT 10SM CLR 20/08 A2961 RMK AO2
KSAZ 210112Z AUTO 16015G21KT 10SM CLR 20/08 A2960 RMK AO2
KSAZ 210053Z AUTO 16014G20KT 10SM CLR 20/08 A2960 RMK AO2
KSAZ 210032Z AUTO 15010G18KT 10SM CLR 21/08 A2960 RMK AO2
KSAZ 210012Z AUTO 16012G20KT 10SM CLR 21/09 A2959 RMK AO2
KSAZ 202353Z AUTO 15011G17KT 10SM CLR 21/09 A2959 RMK AO2
KSAZ 202332Z AUTO 16014G19KT 10SM CLR 21/09 A2959 RMK AO2
KSAZ 202312Z AUTO 16015G19KT 10SM CLR 22/09 A2959 RMK AO2
KSAZ 202253Z AUTO 16014G19KT 10SM CLR 22/09 A2959 RMK AO2
KSAZ 202232Z AUTO 16015G24KT 10SM CLR 22/09 A2959 RMK AO2
KSAZ 202212Z AUTO 16016G23KT 10SM CLR 23/09 A2959 RMK AO2
KSAZ 202153Z AUTO 16017G24KT 10SM CLR 23/08 A2960 RMK AO2
KSAZ 202132Z AUTO 17017G23KT 10SM CLR 23/08 A2961 RMK AO2
KSAZ 202112Z AUTO 16016G24KT 10SM CLR 23/09 A2961 RMK AO2
KSAZ 202053Z AUTO 16013G18KT 10SM CLR 23/09 A2962 RMK AO2
KSAZ 202032Z AUTO 16014G25KT 10SM CLR 23/09 A2963 RMK AO2
KSAZ 202012Z AUTO 17017G23KT 10SM CLR 23/09 A2963 RMK AO2
KSAZ 201953Z AUTO 17016G24KT 10SM CLR 23/09 A2964 RMK AO2
KSAZ 201932Z AUTO 16018KT 10SM CLR 23/09 A2964 RMK AO2
KSAZ 201912Z AUTO 17012G22KT 10SM CLR 22/09 A2965 RMK AO2
KSAZ 201853Z AUTO 17013G21KT 10SM CLR 23/09 A2966 RMK AO2
KSAZ 201832Z AUTO 17013G18KT 10SM CLR 22/09 A2967 RMK AO2
KSAZ 201812Z AUTO 15009KT 10SM CLR 21/09 A2968 RMK AO2
KSAZ 201753Z AUTO 15009G16KT 10SM CLR 21/09 A2969 RMK AO2
KSAZ 201732Z AUTO 16016KT 10SM CLR 20/09 A2970 RMK AO2
KSAZ 201712Z AUTO 16012G17KT 10SM CLR 19/09 A2971 RMK AO2
KSAZ 201653Z AUTO 16012G18KT 10SM CLR 19/09 A2972 RMK AO2
KSAZ 201632Z AUTO 18014G21KT 10SM CLR 18/09 A2973 RMK AO2
KSAZ 201612Z AUTO 18014G21KT 10SM CLR 18/09 A2973 RMK AO2
KSAZ 201552Z AUTO 18010G17KT 10SM CLR 17/09 A2974 RMK AO2
KSAZ 201532Z AUTO 17011G18KT 10SM CLR 16/09 A2974 RMK AO2
KSAZ 201512Z AUTO 18009G16KT 10SM CLR 16/09 A2974 RMK AO2
KSAZ 201452Z AUTO 18012KT 10SM CLR 15/08 A2975 RMK AO2
KSAZ 201432Z AUTO 17011KT 10SM CLR 14/08 A2975 RMK AO2
KSAZ 201412Z AUTO 17009KT 10SM CLR 13/08 A2975 RMK AO2
KSAZ 201352Z AUTO 17010KT 10SM CLR 12/08 A2975 RMK AO2
KSAZ 201332Z AUTO 17008KT 10SM CLR 12/08 A2975 RMK AO2
KSAZ 201313Z AUTO 17008KT 10SM CLR 11/08 A2975 RMK AO2
KSAZ 201252Z AUTO 16008KT 10SM CLR 11/08 A2976 RMK AO2
KSAZ 201232Z AUTO 16007KT 10SM CLR 11/08 A2976 RMK AO2
KSAZ 201213Z AUTO 16008KT 10SM CLR 11/08 A2976 RMK AO2
KSAZ 201152Z AUTO 16007KT 10SM CLR 11/08 A2976 RMK AO2
KSAZ 201132Z AUTO 15005KT 10SM CLR 11/08 A2977 RMK AO2
KSAZ 201112Z AUTO 15005KT 10SM CLR 11/08 A2977 RMK AO2
KSAZ 201052Z AUTO 15006KT 10SM CLR 11/08 A2977 RMK AO2
KSAZ 201032Z AUTO 15007KT 10SM CLR 11/08 A2977 RMK AO2
KSAZ 201012Z AUTO 16006KT 10SM CLR 11/08 A2978 RMK AO2
KSAZ 200952Z AUTO 16006KT 10SM CLR 11/08 A2978 RMK AO2
KSAZ 200932Z AUTO 16007KT 10SM CLR 11/07 A2978 RMK AO2
KSAZ 200912Z AUTO 16006KT 10SM CLR 11/07 A2978 RMK AO2
KSAZ 200852Z AUTO 16007KT 10SM CLR 11/07 A2979 RMK AO2
KSAZ 200832Z AUTO 17006KT 10SM CLR 11/07 A2980 RMK AO2
KSAZ 200812Z AUTO 16006KT 10SM CLR 11/07 A2980 RMK AO2
KSAZ 200753Z AUTO 16006KT 10SM CLR 11/07 A2981 RMK AO2
KSAZ 200732Z AUTO 16006KT 10SM CLR 11/06 A2981 RMK AO2
KSAZ 200712Z AUTO 16006KT 10SM CLR 11/06 A2982 RMK AO2
KSAZ 200653Z AUTO 16005KT 10SM CLR 11/06 A2982 RMK AO2
KSAZ 200632Z AUTO 16005KT 10SM CLR 11/06 A2983 RMK AO2
KSAZ 200612Z AUTO 15004KT 10SM CLR 11/05 A2983 RMK AO2
KSAZ 200553Z AUTO 15004KT 10SM CLR 11/05 A2984 RMK AO2
KSAZ 200532Z AUTO 16004KT 10SM CLR 11/05 A2984 RMK AO2
KSAZ 200512Z AUTO 15004KT 10SM CLR 12/05 A2984 RMK AO2
KSAZ 200452Z AUTO 15004KT 10SM CLR 12/05 A2984 RMK AO2
KSAZ 200432Z AUTO 17004KT 10SM CLR 12/05 A2985 RMK AO2
KSAZ 200413Z AUTO 16005KT 10SM CLR 12/05 A2985 RMK AO2
KSAZ 200352Z AUTO 16006KT 10SM CLR 12/05 A2985 RMK AO2
KSAZ 200332Z AUTO 17006KT 10SM CLR 12/04 A2985 RMK AO2
KSAZ 200312Z AUTO 17005KT 10SM CLR 13/04 A2985 RMK AO2
KSAZ 200252Z AUTO 16005KT 10SM CLR 13/04 A2985 RMK AO2
KSAZ 200232Z AUTO 16005KT 10SM CLR 13/04 A2986 RMK AO2
KSAZ 200212Z AUTO 16006KT 10SM CLR 14/04 A2986 RMK AO2
KSAZ 200153Z AUTO 15005KT 10SM CLR 14/04 A2986 RMK AO2
KSAZ 200132Z AUTO 15004KT 10SM CLR 14/03 A2986 RMK AO2
KSAZ 200112Z AUTO 14004KT 10SM CLR 15/03 A2986 RMK AO2
KSAZ 200053Z AUTO 15004KT 10SM CLR 15/03 A2986 RMK AO2
KSAZ 200032Z AUTO 15003KT 10SM CLR 16/03 A2986 RMK AO2
KSAZ 200012Z AUTO 13003KT 10SM CLR 17/02 A2986 RMK AO2
KSAZ 192352Z AUTO 14003KT 10SM CLR 17/02 A2986 RMK AO2
KSAZ 192332Z AUTO 14003KT 10SM CLR 17/02 A2986 RMK AO2
KSAZ 192312Z AUTO 16005KT 10SM CLR 18/02 A2986 RMK AO2
KSAZ 192252Z AUTO 17007KT 10SM CLR 18/02 A2986 RMK AO2
KSAZ 192232Z AUTO 17008KT 10SM CLR 19/02 A2987 RMK AO2
KSAZ 192212Z AUTO 19010KT 10SM CLR 21/01 A2987 RMK AO2
KSAZ 192152Z AUTO 19010KT 10SM CLR 21/01 A2987 RMK AO2
KSAZ 192132Z AUTO 19011G15KT 10SM CLR 22/01 A2987 RMK AO2
KSAZ 192113Z AUTO 18008G16KT 10SM CLR 21/01 A2987 RMK AO2
KSAZ 192052Z AUTO 19011KT 10SM CLR 22/01 A2988 RMK AO2
KSAZ 192032Z AUTO 20012G16KT 10SM CLR 21/01 A2988 RMK AO2
KSAZ 192013Z AUTO 18011G16KT 10SM CLR 21/01 A2989 RMK AO2
KSAZ 191952Z AUTO 19010G20KT 10SM CLR 21/01 A2989 RMK AO2
KSAZ 191932Z AUTO 18010G19KT 10SM CLR 21/01 A2990 RMK AO2
KSAZ 191913Z AUTO 19017G21KT 10SM CLR 21/00 A2991 RMK AO2
KSAZ 191852Z AUTO 20011G19KT 10SM CLR 20/01 A2991 RMK AO2
KSAZ 191833Z AUTO 18013G18KT 10SM CLR 20/01 A2992 RMK AO2
KSAZ 191757Z AUTO 19011KT 10SM CLR 19/00 A2994 RMK AO2
KSAZ 191733Z AUTO 18013KT 10SM CLR 18/M01 A2995 RMK AO2
KSAZ 191712Z AUTO 19013G17KT 10SM CLR 18/M01 A2996 RMK AO2
KSAZ 191652Z AUTO 17009KT 10SM CLR 17/M02 A2997 RMK AO2
KSAZ 191633Z AUTO 17013G17KT 10SM CLR 16/M03 A2997 RMK AO2
KSAZ 191612Z AUTO 17008G14KT 10SM CLR 15/M02 A2997 RMK AO2
KSAZ 191552Z AUTO 18008G15KT 10SM CLR 14/M02 A2998 RMK AO2
KSAZ 191532Z AUTO 19012G15KT 10SM CLR 13/M03 A2998 RMK AO2
KSAZ 191512Z AUTO 18008KT 10SM CLR 12/M01 A2998 RMK AO2